sensor_id;sensor_type;location;lat;lon;timestamp;temperature;humidity
27823;DHT22;29019;47.630;8.262;2023-07-13T00:01:40;24.10;64.10
27823;DHT22;29019;47.630;8.262;2023-07-13T00:05:41;24.10;64.20
27823;DHT22;29019;47.630;8.262;2023-07-13T00:09:41;24.00;64.20
27823;DHT22;29019;47.630;8.262;2023-07-13T00:13:42;24.00;64.10
27823;DHT22;29019;47.630;8.262;2023-07-13T00:17:43;24.00;64.20
27823;DHT22;29019;47.630;8.262;2023-07-13T00:21:47;24.00;64.20
27823;DHT22;29019;47.630;8.262;2023-07-13T00:25:48;24.00;64.20
27823;DHT22;29019;47.630;8.262;2023-07-13T00:29:51;23.90;64.10
27823;DHT22;29019;47.630;8.262;2023-07-13T00:33:51;24.00;64.10
27823;DHT22;29019;47.630;8.262;2023-07-13T00:37:52;24.00;64.10
27823;DHT22;29019;47.630;8.262;2023-07-13T00:41:52;23.90;64.00
27823;DHT22;29019;47.630;8.262;2023-07-13T00:49:53;23.90;64.10
27823;DHT22;29019;47.630;8.262;2023-07-13T00:53:54;23.90;64.00
27823;DHT22;29019;47.630;8.262;2023-07-13T00:57:56;23.90;64.10
27823;DHT22;29019;47.630;8.262;2023-07-13T01:01:57;23.90;64.00
27823;DHT22;29019;47.630;8.262;2023-07-13T01:05:57;23.90;64.10
27823;DHT22;29019;47.630;8.262;2023-07-13T01:09:58;23.90;64.10
27823;DHT22;29019;47.630;8.262;2023-07-13T01:13:58;23.90;64.00
27823;DHT22;29019;47.630;8.262;2023-07-13T01:17:59;23.90;64.00
27823;DHT22;29019;47.630;8.262;2023-07-13T01:22:00;23.90;64.10
27823;DHT22;29019;47.630;8.262;2023-07-13T01:26:00;23.90;64.10
27823;DHT22;29019;47.630;8.262;2023-07-13T01:30:01;23.80;64.10
27823;DHT22;29019;47.630;8.262;2023-07-13T01:34:04;23.90;64.20
27823;DHT22;29019;47.630;8.262;2023-07-13T01:38:05;23.80;64.10
27823;DHT22;29019;47.630;8.262;2023-07-13T01:42:06;23.90;64.10
27823;DHT22;29019;47.630;8.262;2023-07-13T01:46:06;23.90;64.10
27823;DHT22;29019;47.630;8.262;2023-07-13T01:50:07;23.80;64.00
27823;DHT22;29019;47.630;8.262;2023-07-13T01:54:07;23.90;64.10
27823;DHT22;29019;47.630;8.262;2023-07-13T01:58:08;23.80;64.00
27823;DHT22;29019;47.630;8.262;2023-07-13T02:02:08;23.80;64.00
27823;DHT22;29019;47.630;8.262;2023-07-13T02:06:09;23.90;64.10
27823;DHT22;29019;47.630;8.262;2023-07-13T02:10:10;23.80;64.00
27823;DHT22;29019;47.630;8.262;2023-07-13T02:14:14;23.80;64.00
27823;DHT22;29019;47.630;8.262;2023-07-13T02:18:15;23.80;64.00
27823;DHT22;29019;47.630;8.262;2023-07-13T02:22:17;23.90;64.00
27823;DHT22;29019;47.630;8.262;2023-07-13T02:26:18;23.80;64.00
27823;DHT22;29019;47.630;8.262;2023-07-13T02:30:18;23.80;64.00
27823;DHT22;29019;47.630;8.262;2023-07-13T02:34:19;23.80;64.00
27823;DHT22;29019;47.630;8.262;2023-07-13T02:38:19;23.80;64.00
27823;DHT22;29019;47.630;8.262;2023-07-13T02:42:20;23.80;64.00
27823;DHT22;29019;47.630;8.262;2023-07-13T02:46:21;23.80;64.10
27823;DHT22;29019;47.630;8.262;2023-07-13T02:50:21;23.80;64.10
27823;DHT22;29019;47.630;8.262;2023-07-13T02:54:22;23.80;64.00
27823;DHT22;29019;47.630;8.262;2023-07-13T02:58:23;23.80;64.00
27823;DHT22;29019;47.630;8.262;2023-07-13T03:02:23;23.80;64.10
27823;DHT22;29019;47.630;8.262;2023-07-13T03:06:24;23.80;64.00
27823;DHT22;29019;47.630;8.262;2023-07-13T03:10:24;23.80;64.00
27823;DHT22;29019;47.630;8.262;2023-07-13T03:14:25;23.80;64.00
27823;DHT22;29019;47.630;8.262;2023-07-13T03:18:27;23.80;64.00
27823;DHT22;29019;47.630;8.262;2023-07-13T03:22:28;23.80;64.00
27823;DHT22;29019;47.630;8.262;2023-07-13T03:26:28;23.80;64.00
27823;DHT22;29019;47.630;8.262;2023-07-13T03:30:29;23.80;64.00
27823;DHT22;29019;47.630;8.262;2023-07-13T03:34:29;23.80;64.00
27823;DHT22;29019;47.630;8.262;2023-07-13T03:38:30;23.80;64.00
27823;DHT22;29019;47.630;8.262;2023-07-13T03:42:30;23.80;63.90
27823;DHT22;29019;47.630;8.262;2023-07-13T03:46:31;23.80;64.00
27823;DHT22;29019;47.630;8.262;2023-07-13T03:50:31;23.80;64.00
27823;DHT22;29019;47.630;8.262;2023-07-13T03:54:32;23.80;64.00
27823;DHT22;29019;47.630;8.262;2023-07-13T03:58:34;23.70;63.90
27823;DHT22;29019;47.630;8.262;2023-07-13T04:02:34;23.70;64.00
27823;DHT22;29019;47.630;8.262;2023-07-13T04:06:36;23.70;64.00
27823;DHT22;29019;47.630;8.262;2023-07-13T04:10:37;23.70;64.00
27823;DHT22;29019;47.630;8.262;2023-07-13T04:14:39;23.70;64.00
27823;DHT22;29019;47.630;8.262;2023-07-13T04:18:39;23.70;63.90
27823;DHT22;29019;47.630;8.262;2023-07-13T04:22:40;23.70;63.90
27823;DHT22;29019;47.630;8.262;2023-07-13T04:26:40;23.70;63.90
27823;DHT22;29019;47.630;8.262;2023-07-13T04:30:41;23.80;63.90
27823;DHT22;29019;47.630;8.262;2023-07-13T04:34:41;23.70;63.90
27823;DHT22;29019;47.630;8.262;2023-07-13T04:38:42;23.70;63.90
27823;DHT22;29019;47.630;8.262;2023-07-13T04:42:43;23.70;63.90
27823;DHT22;29019;47.630;8.262;2023-07-13T04:46:43;23.80;63.90
27823;DHT22;29019;47.630;8.262;2023-07-13T04:50:44;23.70;63.90
27823;DHT22;29019;47.630;8.262;2023-07-13T04:54:45;23.70;63.80
27823;DHT22;29019;47.630;8.262;2023-07-13T04:58:46;23.70;63.90
27823;DHT22;29019;47.630;8.262;2023-07-13T05:02:46;23.80;63.90
27823;DHT22;29019;47.630;8.262;2023-07-13T05:06:47;23.70;63.90
27823;DHT22;29019;47.630;8.262;2023-07-13T05:10:47;23.70;63.90
27823;DHT22;29019;47.630;8.262;2023-07-13T05:14:48;23.70;64.00
27823;DHT22;29019;47.630;8.262;2023-07-13T05:18:49;23.70;63.90
27823;DHT22;29019;47.630;8.262;2023-07-13T05:22:50;23.70;64.00
27823;DHT22;29019;47.630;8.262;2023-07-13T05:26:50;23.70;64.00
27823;DHT22;29019;47.630;8.262;2023-07-13T05:30:51;23.70;63.90
27823;DHT22;29019;47.630;8.262;2023-07-13T05:34:52;23.70;63.90
27823;DHT22;29019;47.630;8.262;2023-07-13T05:38:52;23.70;63.90
27823;DHT22;29019;47.630;8.262;2023-07-13T05:42:53;23.70;63.80
27823;DHT22;29019;47.630;8.262;2023-07-13T05:46:53;23.70;63.90
27823;DHT22;29019;47.630;8.262;2023-07-13T05:50:56;23.70;63.90
27823;DHT22;29019;47.630;8.262;2023-07-13T05:54:56;23.70;63.80
27823;DHT22;29019;47.630;8.262;2023-07-13T05:58:57;23.70;63.90
27823;DHT22;29019;47.630;8.262;2023-07-13T06:02:57;23.70;63.90
27823;DHT22;29019;47.630;8.262;2023-07-13T06:06:59;23.70;63.90
27823;DHT22;29019;47.630;8.262;2023-07-13T06:11:08;23.70;63.90
27823;DHT22;29019;47.630;8.262;2023-07-13T06:15:10;23.70;63.80
27823;DHT22;29019;47.630;8.262;2023-07-13T06:19:10;23.70;63.80
27823;DHT22;29019;47.630;8.262;2023-07-13T06:23:11;23.70;63.90
27823;DHT22;29019;47.630;8.262;2023-07-13T06:27:11;23.70;63.90
27823;DHT22;29019;47.630;8.262;2023-07-13T06:31:12;23.70;63.90
27823;DHT22;29019;47.630;8.262;2023-07-13T06:35:13;23.70;63.90
27823;DHT22;29019;47.630;8.262;2023-07-13T06:39:13;23.70;63.90
27823;DHT22;29019;47.630;8.262;2023-07-13T06:43:14;23.70;63.90
27823;DHT22;29019;47.630;8.262;2023-07-13T06:47:14;23.70;63.90
27823;DHT22;29019;47.630;8.262;2023-07-13T06:51:15;23.70;63.90
27823;DHT22;29019;47.630;8.262;2023-07-13T06:55:15;23.70;63.80
27823;DHT22;29019;47.630;8.262;2023-07-13T06:59:16;23.70;63.80
27823;DHT22;29019;47.630;8.262;2023-07-13T07:03:17;23.70;63.80
27823;DHT22;29019;47.630;8.262;2023-07-13T07:07:17;23.70;63.90
27823;DHT22;29019;47.630;8.262;2023-07-13T07:11:19;23.70;63.80
27823;DHT22;29019;47.630;8.262;2023-07-13T07:15:19;23.70;63.80
27823;DHT22;29019;47.630;8.262;2023-07-13T07:19:20;23.70;63.80
27823;DHT22;29019;47.630;8.262;2023-07-13T07:23:20;23.70;63.80
27823;DHT22;29019;47.630;8.262;2023-07-13T07:27:21;23.70;63.80
27823;DHT22;29019;47.630;8.262;2023-07-13T07:31:22;23.70;63.70
27823;DHT22;29019;47.630;8.262;2023-07-13T07:35:22;23.70;63.80
27823;DHT22;29019;47.630;8.262;2023-07-13T07:39:23;23.70;63.70
27823;DHT22;29019;47.630;8.262;2023-07-13T07:43:23;23.70;63.80
27823;DHT22;29019;47.630;8.262;2023-07-13T07:47:24;23.70;63.80
27823;DHT22;29019;47.630;8.262;2023-07-13T07:51:25;23.70;63.90
27823;DHT22;29019;47.630;8.262;2023-07-13T07:55:26;23.70;63.90
27823;DHT22;29019;47.630;8.262;2023-07-13T07:59:27;23.70;63.80
27823;DHT22;29019;47.630;8.262;2023-07-13T08:03:27;23.70;63.80
27823;DHT22;29019;47.630;8.262;2023-07-13T08:07:28;23.70;63.80
27823;DHT22;29019;47.630;8.262;2023-07-13T08:11:30;23.70;63.80
27823;DHT22;29019;47.630;8.262;2023-07-13T08:15:30;23.70;63.70
27823;DHT22;29019;47.630;8.262;2023-07-13T08:19:31;23.70;63.80
27823;DHT22;29019;47.630;8.262;2023-07-13T08:23:31;23.70;63.70
27823;DHT22;29019;47.630;8.262;2023-07-13T08:27:32;23.70;63.60
27823;DHT22;29019;47.630;8.262;2023-07-13T08:31:33;23.70;63.70
27823;DHT22;29019;47.630;8.262;2023-07-13T08:35:33;23.70;63.70
27823;DHT22;29019;47.630;8.262;2023-07-13T08:39:34;23.70;63.70
27823;DHT22;29019;47.630;8.262;2023-07-13T08:43:35;23.70;63.70
27823;DHT22;29019;47.630;8.262;2023-07-13T08:47:37;23.70;63.70
27823;DHT22;29019;47.630;8.262;2023-07-13T08:51:46;23.70;63.70
27823;DHT22;29019;47.630;8.262;2023-07-13T08:55:50;23.70;63.70
27823;DHT22;29019;47.630;8.262;2023-07-13T08:59:53;23.70;63.70
27823;DHT22;29019;47.630;8.262;2023-07-13T09:03:59;23.70;63.70
27823;DHT22;29019;47.630;8.262;2023-07-13T09:08:45;23.70;63.80
27823;DHT22;29019;47.630;8.262;2023-07-13T09:16:45;23.70;63.70
27823;DHT22;29019;47.630;8.262;2023-07-13T09:25:30;23.70;63.70
27823;DHT22;29019;47.630;8.262;2023-07-13T09:29:32;23.70;63.70
27823;DHT22;29019;47.630;8.262;2023-07-13T09:33:34;23.70;63.70
27823;DHT22;29019;47.630;8.262;2023-07-13T09:37:35;23.70;63.60
27823;DHT22;29019;47.630;8.262;2023-07-13T09:45:55;23.70;63.60
27823;DHT22;29019;47.630;8.262;2023-07-13T09:53:56;23.70;63.50
27823;DHT22;29019;47.630;8.262;2023-07-13T09:57:57;23.70;63.60
27823;DHT22;29019;47.630;8.262;2023-07-13T10:01:58;23.70;63.50
27823;DHT22;29019;47.630;8.262;2023-07-13T10:06:01;23.70;63.60
27823;DHT22;29019;47.630;8.262;2023-07-13T10:10:12;23.70;63.50
27823;DHT22;29019;47.630;8.262;2023-07-13T10:14:15;23.70;63.60
27823;DHT22;29019;47.630;8.262;2023-07-13T10:18:16;23.70;63.60
27823;DHT22;29019;47.630;8.262;2023-07-13T10:26:22;23.70;63.60
27823;DHT22;29019;47.630;8.262;2023-07-13T10:30:25;23.70;63.60
27823;DHT22;29019;47.630;8.262;2023-07-13T10:34:28;23.70;63.50
27823;DHT22;29019;47.630;8.262;2023-07-13T10:38:29;23.70;63.40
27823;DHT22;29019;47.630;8.262;2023-07-13T10:46:30;23.70;63.40
27823;DHT22;29019;47.630;8.262;2023-07-13T10:50:31;23.70;63.40
27823;DHT22;29019;47.630;8.262;2023-07-13T10:54:32;23.70;64.20
27823;DHT22;29019;47.630;8.262;2023-07-13T10:58:34;23.70;63.30
27823;DHT22;29019;47.630;8.262;2023-07-13T11:02:35;23.70;63.30
27823;DHT22;29019;47.630;8.262;2023-07-13T11:06:42;23.70;63.30
27823;DHT22;29019;47.630;8.262;2023-07-13T11:23:16;23.70;63.30
27823;DHT22;29019;47.630;8.262;2023-07-13T11:27:22;23.70;63.20
27823;DHT22;29019;47.630;8.262;2023-07-13T11:31:23;23.70;63.20
27823;DHT22;29019;47.630;8.262;2023-07-13T11:35:23;23.70;63.30
27823;DHT22;29019;47.630;8.262;2023-07-13T11:39:28;23.70;63.30
27823;DHT22;29019;47.630;8.262;2023-07-13T11:43:30;23.70;63.30
27823;DHT22;29019;47.630;8.262;2023-07-13T11:47:31;23.70;63.30
27823;DHT22;29019;47.630;8.262;2023-07-13T11:51:32;23.70;63.20
27823;DHT22;29019;47.630;8.262;2023-07-13T11:55:33;23.70;63.20
27823;DHT22;29019;47.630;8.262;2023-07-13T11:59:38;23.70;63.10
27823;DHT22;29019;47.630;8.262;2023-07-13T12:03:39;23.70;63.10
27823;DHT22;29019;47.630;8.262;2023-07-13T12:07:40;23.70;63.10
27823;DHT22;29019;47.630;8.262;2023-07-13T12:11:42;23.70;63.10
27823;DHT22;29019;47.630;8.262;2023-07-13T12:15:43;23.80;63.20
27823;DHT22;29019;47.630;8.262;2023-07-13T12:19:50;23.80;63.10
27823;DHT22;29019;47.630;8.262;2023-07-13T12:23:51;23.70;63.10
27823;DHT22;29019;47.630;8.262;2023-07-13T12:27:51;23.70;63.10
27823;DHT22;29019;47.630;8.262;2023-07-13T12:31:52;23.70;63.00
27823;DHT22;29019;47.630;8.262;2023-07-13T12:35:52;23.70;63.10
27823;DHT22;29019;47.630;8.262;2023-07-13T12:39:53;23.70;63.00
27823;DHT22;29019;47.630;8.262;2023-07-13T12:43:54;23.80;63.10
27823;DHT22;29019;47.630;8.262;2023-07-13T12:47:56;23.70;63.00
27823;DHT22;29019;47.630;8.262;2023-07-13T12:52:00;23.70;63.00
27823;DHT22;29019;47.630;8.262;2023-07-13T12:56:01;23.70;63.10
27823;DHT22;29019;47.630;8.262;2023-07-13T13:00:03;23.70;63.10
27823;DHT22;29019;47.630;8.262;2023-07-13T13:04:04;23.70;63.00
27823;DHT22;29019;47.630;8.262;2023-07-13T13:08:11;23.80;63.10
27823;DHT22;29019;47.630;8.262;2023-07-13T13:12:12;23.70;62.90
27823;DHT22;29019;47.630;8.262;2023-07-13T13:24:15;23.80;63.00
27823;DHT22;29019;47.630;8.262;2023-07-13T13:28:17;23.80;62.90
27823;DHT22;29019;47.630;8.262;2023-07-13T13:32:18;23.80;63.00
27823;DHT22;29019;47.630;8.262;2023-07-13T13:36:20;23.80;62.90
27823;DHT22;29019;47.630;8.262;2023-07-13T13:40:21;23.80;62.90
27823;DHT22;29019;47.630;8.262;2023-07-13T13:44:27;23.80;62.90
27823;DHT22;29019;47.630;8.262;2023-07-13T13:52:31;23.80;62.80
27823;DHT22;29019;47.630;8.262;2023-07-13T13:56:32;23.80;62.80
27823;DHT22;29019;47.630;8.262;2023-07-13T14:00:33;23.80;62.80
27823;DHT22;29019;47.630;8.262;2023-07-13T14:04:33;23.80;62.80
27823;DHT22;29019;47.630;8.262;2023-07-13T14:08:34;23.80;62.80
27823;DHT22;29019;47.630;8.262;2023-07-13T14:12:35;23.80;62.80
27823;DHT22;29019;47.630;8.262;2023-07-13T14:16:35;23.80;62.80
27823;DHT22;29019;47.630;8.262;2023-07-13T14:20:36;23.80;62.80
27823;DHT22;29019;47.630;8.262;2023-07-13T14:24:36;23.80;62.70
27823;DHT22;29019;47.630;8.262;2023-07-13T14:28:37;23.80;62.70
27823;DHT22;29019;47.630;8.262;2023-07-13T14:32:39;23.70;62.60
27823;DHT22;29019;47.630;8.262;2023-07-13T14:36:43;23.80;62.70
27823;DHT22;29019;47.630;8.262;2023-07-13T14:40:45;23.80;62.70
27823;DHT22;29019;47.630;8.262;2023-07-13T14:44:46;23.80;62.70
27823;DHT22;29019;47.630;8.262;2023-07-13T14:48:46;23.80;62.60
27823;DHT22;29019;47.630;8.262;2023-07-13T14:52:47;23.80;62.60
27823;DHT22;29019;47.630;8.262;2023-07-13T14:56:48;23.80;62.60
27823;DHT22;29019;47.630;8.262;2023-07-13T15:00:49;23.80;62.60
27823;DHT22;29019;47.630;8.262;2023-07-13T15:04:50;23.80;62.60
27823;DHT22;29019;47.630;8.262;2023-07-13T15:08:51;23.80;62.60
27823;DHT22;29019;47.630;8.262;2023-07-13T15:12:51;23.80;62.60
27823;DHT22;29019;47.630;8.262;2023-07-13T15:16:54;23.80;62.70
27823;DHT22;29019;47.630;8.262;2023-07-13T15:20:56;23.80;62.70
27823;DHT22;29019;47.630;8.262;2023-07-13T15:24:58;23.80;62.70
27823;DHT22;29019;47.630;8.262;2023-07-13T15:29:00;23.80;62.70
27823;DHT22;29019;47.630;8.262;2023-07-13T15:33:05;23.80;63.40
27823;DHT22;29019;47.630;8.262;2023-07-13T15:37:13;23.70;62.60
27823;DHT22;29019;47.630;8.262;2023-07-13T15:41:22;23.80;62.70
27823;DHT22;29019;47.630;8.262;2023-07-13T15:45:23;23.80;62.70
27823;DHT22;29019;47.630;8.262;2023-07-13T15:49:24;23.80;62.70
27823;DHT22;29019;47.630;8.262;2023-07-13T15:53:26;23.80;62.70
27823;DHT22;29019;47.630;8.262;2023-07-13T15:57:28;23.80;62.70
27823;DHT22;29019;47.630;8.262;2023-07-13T16:01:29;23.80;62.60
27823;DHT22;29019;47.630;8.262;2023-07-13T16:05:30;23.80;62.60
27823;DHT22;29019;47.630;8.262;2023-07-13T16:09:31;23.80;62.70
27823;DHT22;29019;47.630;8.262;2023-07-13T16:13:31;23.80;62.70
27823;DHT22;29019;47.630;8.262;2023-07-13T16:17:32;23.80;62.70
27823;DHT22;29019;47.630;8.262;2023-07-13T16:21:33;23.80;62.70
27823;DHT22;29019;47.630;8.262;2023-07-13T16:25:35;23.80;62.70
27823;DHT22;29019;47.630;8.262;2023-07-13T16:29:36;23.80;62.60
27823;DHT22;29019;47.630;8.262;2023-07-13T16:33:39;23.80;62.70
27823;DHT22;29019;47.630;8.262;2023-07-13T16:37:39;23.80;62.70
27823;DHT22;29019;47.630;8.262;2023-07-13T16:41:40;23.80;62.70
27823;DHT22;29019;47.630;8.262;2023-07-13T16:45:40;23.80;62.70
27823;DHT22;29019;47.630;8.262;2023-07-13T16:49:45;23.80;62.70
27823;DHT22;29019;47.630;8.262;2023-07-13T16:53:46;23.80;62.70
27823;DHT22;29019;47.630;8.262;2023-07-13T16:57:46;23.80;62.70
27823;DHT22;29019;47.630;8.262;2023-07-13T17:01:48;23.80;62.60
27823;DHT22;29019;47.630;8.262;2023-07-13T17:05:48;23.80;62.60
27823;DHT22;29019;47.630;8.262;2023-07-13T17:09:49;23.80;62.70
27823;DHT22;29019;47.630;8.262;2023-07-13T17:13:52;23.80;62.70
27823;DHT22;29019;47.630;8.262;2023-07-13T17:17:52;23.80;62.60
27823;DHT22;29019;47.630;8.262;2023-07-13T17:22:03;23.80;62.60
27823;DHT22;29019;47.630;8.262;2023-07-13T17:26:05;23.80;62.70
27823;DHT22;29019;47.630;8.262;2023-07-13T17:30:08;23.80;62.60
27823;DHT22;29019;47.630;8.262;2023-07-13T17:34:14;23.80;62.60
27823;DHT22;29019;47.630;8.262;2023-07-13T17:38:17;23.70;62.60
27823;DHT22;29019;47.630;8.262;2023-07-13T17:42:20;23.80;62.60
27823;DHT22;29019;47.630;8.262;2023-07-13T17:46:23;23.80;62.60
27823;DHT22;29019;47.630;8.262;2023-07-13T17:50:28;23.80;62.70
27823;DHT22;29019;47.630;8.262;2023-07-13T17:54:48;23.70;62.60
27823;DHT22;29019;47.630;8.262;2023-07-13T17:58:50;23.70;62.70
27823;DHT22;29019;47.630;8.262;2023-07-13T18:02:51;23.70;62.70
27823;DHT22;29019;47.630;8.262;2023-07-13T18:06:52;23.70;62.60
27823;DHT22;29019;47.630;8.262;2023-07-13T18:11:08;23.70;62.60
27823;DHT22;29019;47.630;8.262;2023-07-13T18:15:09;23.80;62.70
27823;DHT22;29019;47.630;8.262;2023-07-13T18:19:17;23.80;62.70
27823;DHT22;29019;47.630;8.262;2023-07-13T18:23:20;23.70;62.60
27823;DHT22;29019;47.630;8.262;2023-07-13T18:27:21;23.80;62.70
27823;DHT22;29019;47.630;8.262;2023-07-13T18:31:22;23.80;62.60
27823;DHT22;29019;47.630;8.262;2023-07-13T18:35:26;23.80;62.60
27823;DHT22;29019;47.630;8.262;2023-07-13T18:39:28;23.80;62.70
27823;DHT22;29019;47.630;8.262;2023-07-13T18:43:28;23.70;62.60
27823;DHT22;29019;47.630;8.262;2023-07-13T18:47:29;23.70;62.60
27823;DHT22;29019;47.630;8.262;2023-07-13T18:51:35;23.80;62.70
27823;DHT22;29019;47.630;8.262;2023-07-13T18:55:35;23.80;62.60
27823;DHT22;29019;47.630;8.262;2023-07-13T18:59:36;23.80;62.70
27823;DHT22;29019;47.630;8.262;2023-07-13T19:03:37;23.70;62.60
27823;DHT22;29019;47.630;8.262;2023-07-13T19:07:37;23.70;62.60
27823;DHT22;29019;47.630;8.262;2023-07-13T19:11:38;23.70;62.70
27823;DHT22;29019;47.630;8.262;2023-07-13T19:15:38;23.70;62.70
27823;DHT22;29019;47.630;8.262;2023-07-13T19:19:39;23.70;62.70
27823;DHT22;29019;47.630;8.262;2023-07-13T19:23:41;23.70;62.70
27823;DHT22;29019;47.630;8.262;2023-07-13T19:27:43;23.70;63.40
27823;DHT22;29019;47.630;8.262;2023-07-13T19:31:43;23.70;62.70
27823;DHT22;29019;47.630;8.262;2023-07-13T19:35:45;23.70;62.70
27823;DHT22;29019;47.630;8.262;2023-07-13T19:39:46;23.70;62.70
27823;DHT22;29019;47.630;8.262;2023-07-13T19:43:48;23.80;62.70
27823;DHT22;29019;47.630;8.262;2023-07-13T19:47:49;23.70;62.60
27823;DHT22;29019;47.630;8.262;2023-07-13T19:51:49;23.70;62.60
27823;DHT22;29019;47.630;8.262;2023-07-13T19:55:50;23.70;62.70
27823;DHT22;29019;47.630;8.262;2023-07-13T19:59:52;23.70;62.70
27823;DHT22;29019;47.630;8.262;2023-07-13T20:03:54;23.70;62.70
27823;DHT22;29019;47.630;8.262;2023-07-13T20:07:55;23.70;62.70
27823;DHT22;29019;47.630;8.262;2023-07-13T20:11:57;23.70;62.70
27823;DHT22;29019;47.630;8.262;2023-07-13T20:15:57;23.80;62.70
27823;DHT22;29019;47.630;8.262;2023-07-13T20:19:58;23.70;62.70
27823;DHT22;29019;47.630;8.262;2023-07-13T20:23:59;23.70;62.70
27823;DHT22;29019;47.630;8.262;2023-07-13T20:28:00;23.70;62.80
27823;DHT22;29019;47.630;8.262;2023-07-13T20:32:08;23.70;62.70
27823;DHT22;29019;47.630;8.262;2023-07-13T20:36:09;23.70;62.70
27823;DHT22;29019;47.630;8.262;2023-07-13T20:40:12;23.70;62.70
27823;DHT22;29019;47.630;8.262;2023-07-13T20:44:13;23.70;62.80
27823;DHT22;29019;47.630;8.262;2023-07-13T20:52:18;23.70;62.70
27823;DHT22;29019;47.630;8.262;2023-07-13T20:56:18;23.70;62.70
27823;DHT22;29019;47.630;8.262;2023-07-13T21:00:20;23.70;62.70
27823;DHT22;29019;47.630;8.262;2023-07-13T21:04:21;23.70;62.70
27823;DHT22;29019;47.630;8.262;2023-07-13T21:08:25;23.70;62.70
27823;DHT22;29019;47.630;8.262;2023-07-13T21:12:27;23.70;62.70
27823;DHT22;29019;47.630;8.262;2023-07-13T21:16:27;23.70;62.60
27823;DHT22;29019;47.630;8.262;2023-07-13T21:20:31;23.70;62.60
27823;DHT22;29019;47.630;8.262;2023-07-13T21:24:32;23.70;62.60
27823;DHT22;29019;47.630;8.262;2023-07-13T21:28:34;23.70;62.60
27823;DHT22;29019;47.630;8.262;2023-07-13T21:32:35;23.70;62.60
27823;DHT22;29019;47.630;8.262;2023-07-13T21:36:35;23.70;62.70
27823;DHT22;29019;47.630;8.262;2023-07-13T21:40:36;23.70;62.70
27823;DHT22;29019;47.630;8.262;2023-07-13T21:44:37;23.70;62.70
27823;DHT22;29019;47.630;8.262;2023-07-13T21:48:38;23.70;62.70
27823;DHT22;29019;47.630;8.262;2023-07-13T21:52:39;23.70;62.70
27823;DHT22;29019;47.630;8.262;2023-07-13T21:56:39;23.70;62.70
27823;DHT22;29019;47.630;8.262;2023-07-13T22:00:40;23.70;62.70
27823;DHT22;29019;47.630;8.262;2023-07-13T22:04:40;23.70;62.60
27823;DHT22;29019;47.630;8.262;2023-07-13T22:08:41;23.70;62.60
27823;DHT22;29019;47.630;8.262;2023-07-13T22:12:42;23.70;62.60
27823;DHT22;29019;47.630;8.262;2023-07-13T22:16:42;23.70;62.60
27823;DHT22;29019;47.630;8.262;2023-07-13T22:20:43;23.70;62.60
27823;DHT22;29019;47.630;8.262;2023-07-13T22:24:44;23.70;62.60
27823;DHT22;29019;47.630;8.262;2023-07-13T22:28:44;23.70;62.60
27823;DHT22;29019;47.630;8.262;2023-07-13T22:32:45;23.70;62.60
27823;DHT22;29019;47.630;8.262;2023-07-13T22:36:46;23.70;62.50
27823;DHT22;29019;47.630;8.262;2023-07-13T22:40:47;23.70;62.50
27823;DHT22;29019;47.630;8.262;2023-07-13T22:44:47;23.70;62.50
27823;DHT22;29019;47.630;8.262;2023-07-13T22:48:56;23.70;62.50
27823;DHT22;29019;47.630;8.262;2023-07-13T22:52:56;23.70;62.60
27823;DHT22;29019;47.630;8.262;2023-07-13T22:56:57;23.70;62.60
27823;DHT22;29019;47.630;8.262;2023-07-13T23:00:58;23.70;62.60
27823;DHT22;29019;47.630;8.262;2023-07-13T23:04:59;23.70;62.60
27823;DHT22;29019;47.630;8.262;2023-07-13T23:09:05;23.70;62.60
27823;DHT22;29019;47.630;8.262;2023-07-13T23:13:09;23.70;62.50
27823;DHT22;29019;47.630;8.262;2023-07-13T23:17:10;23.70;62.50
27823;DHT22;29019;47.630;8.262;2023-07-13T23:21:12;23.70;62.50
27823;DHT22;29019;47.630;8.262;2023-07-13T23:25:13;23.70;62.50
27823;DHT22;29019;47.630;8.262;2023-07-13T23:29:15;23.70;62.50
27823;DHT22;29019;47.630;8.262;2023-07-13T23:37:17;23.70;62.50
27823;DHT22;29019;47.630;8.262;2023-07-13T23:41:18;23.70;62.50
27823;DHT22;29019;47.630;8.262;2023-07-13T23:45:20;23.70;62.50
27823;DHT22;29019;47.630;8.262;2023-07-13T23:49:22;23.70;62.50
27823;DHT22;29019;47.630;8.262;2023-07-13T23:53:23;23.70;62.50
27823;DHT22;29019;47.630;8.262;2023-07-13T23:57:24;23.70;62.50
